sensor_id;sensor_type;location;lat;lon;timestamp;P1;durP1;ratioP1;P2;durP2;ratioP2
11173;SDS011;5643;50.856;12.088;2023-07-20T00:00:32;1.30;;;1.20;;
11173;SDS011;5643;50.856;12.088;2023-07-20T00:03:12;1.07;;;1.07;;
11173;SDS011;5643;50.856;12.088;2023-07-20T00:05:43;1.40;;;1.30;;
11173;SDS011;5643;50.856;12.088;2023-07-20T00:08:14;1.40;;;1.30;;
11173;SDS011;5643;50.856;12.088;2023-07-20T00:10:43;1.50;;;1.40;;
11173;SDS011;5643;50.856;12.088;2023-07-20T00:13:18;1.17;;;1.13;;
11173;SDS011;5643;50.856;12.088;2023-07-20T00:15:53;1.10;;;1.10;;
11173;SDS011;5643;50.856;12.088;2023-07-20T00:18:22;1.47;;;1.37;;
11173;SDS011;5643;50.856;12.088;2023-07-20T00:20:49;1.50;;;1.40;;
11173;SDS011;5643;50.856;12.088;2023-07-20T00:23:20;1.60;;;1.50;;
11173;SDS011;5643;50.856;12.088;2023-07-20T00:25:48;1.93;;;1.30;;
11173;SDS011;5643;50.856;12.088;2023-07-20T00:28:15;1.40;;;1.30;;
11173;SDS011;5643;50.856;12.088;2023-07-20T00:30:45;1.67;;;1.57;;
11173;SDS011;5643;50.856;12.088;2023-07-20T00:36:05;0.87;;;0.87;;
11173;SDS011;5643;50.856;12.088;2023-07-20T00:38:33;1.20;;;1.10;;
11173;SDS011;5643;50.856;12.088;2023-07-20T00:41:02;1.47;;;1.37;;
11173;SDS011;5643;50.856;12.088;2023-07-20T00:43:34;1.00;;;1.00;;
11173;SDS011;5643;50.856;12.088;2023-07-20T00:46:04;1.27;;;1.20;;
11173;SDS011;5643;50.856;12.088;2023-07-20T00:48:32;1.30;;;1.20;;
11173;SDS011;5643;50.856;12.088;2023-07-20T00:51:01;1.40;;;1.30;;
11173;SDS011;5643;50.856;12.088;2023-07-20T00:53:29;1.10;;;1.00;;
11173;SDS011;5643;50.856;12.088;2023-07-20T00:55:57;1.30;;;1.30;;
11173;SDS011;5643;50.856;12.088;2023-07-20T00:58:26;1.40;;;1.30;;
11173;SDS011;5643;50.856;12.088;2023-07-20T01:01:02;1.53;;;1.30;;
11173;SDS011;5643;50.856;12.088;2023-07-20T01:03:37;1.60;;;1.20;;
11173;SDS011;5643;50.856;12.088;2023-07-20T01:06:15;1.93;;;1.30;;
11173;SDS011;5643;50.856;12.088;2023-07-20T01:09:13;1.23;;;1.13;;
11173;SDS011;5643;50.856;12.088;2023-07-20T01:12:00;1.33;;;1.23;;
11173;SDS011;5643;50.856;12.088;2023-07-20T01:14:32;1.30;;;1.20;;
11173;SDS011;5643;50.856;12.088;2023-07-20T01:17:02;1.10;;;1.10;;
11173;SDS011;5643;50.856;12.088;2023-07-20T01:19:33;1.30;;;1.20;;
11173;SDS011;5643;50.856;12.088;2023-07-20T01:22:03;1.17;;;1.10;;
11173;SDS011;5643;50.856;12.088;2023-07-20T01:27:36;1.33;;;1.23;;
11173;SDS011;5643;50.856;12.088;2023-07-20T01:30:18;1.00;;;1.00;;
11173;SDS011;5643;50.856;12.088;2023-07-20T01:33:15;1.07;;;1.00;;
11173;SDS011;5643;50.856;12.088;2023-07-20T01:36:03;1.00;;;1.00;;
11173;SDS011;5643;50.856;12.088;2023-07-20T01:38:51;1.27;;;1.17;;
11173;SDS011;5643;50.856;12.088;2023-07-20T01:41:38;1.07;;;1.00;;
11173;SDS011;5643;50.856;12.088;2023-07-20T01:44:08;1.20;;;1.10;;
11173;SDS011;5643;50.856;12.088;2023-07-20T01:46:40;1.67;;;1.10;;
11173;SDS011;5643;50.856;12.088;2023-07-20T01:49:15;0.97;;;0.93;;
11173;SDS011;5643;50.856;12.088;2023-07-20T01:51:48;1.23;;;1.20;;
11173;SDS011;5643;50.856;12.088;2023-07-20T01:54:17;1.30;;;1.20;;
11173;SDS011;5643;50.856;12.088;2023-07-20T01:56:48;1.13;;;1.13;;
11173;SDS011;5643;50.856;12.088;2023-07-20T01:59:15;1.37;;;1.27;;
11173;SDS011;5643;50.856;12.088;2023-07-20T02:01:44;1.00;;;1.00;;
11173;SDS011;5643;50.856;12.088;2023-07-20T02:04:12;1.73;;;1.20;;
11173;SDS011;5643;50.856;12.088;2023-07-20T02:06:40;1.00;;;1.00;;
11173;SDS011;5643;50.856;12.088;2023-07-20T02:09:09;1.03;;;1.03;;
11173;SDS011;5643;50.856;12.088;2023-07-20T02:11:36;1.00;;;1.00;;
11173;SDS011;5643;50.856;12.088;2023-07-20T02:14:03;1.00;;;1.00;;
11173;SDS011;5643;50.856;12.088;2023-07-20T02:16:31;1.03;;;1.03;;
11173;SDS011;5643;50.856;12.088;2023-07-20T02:19:01;1.00;;;1.00;;
11173;SDS011;5643;50.856;12.088;2023-07-20T02:21:30;1.20;;;1.10;;
11173;SDS011;5643;50.856;12.088;2023-07-20T02:23:59;1.10;;;1.10;;
11173;SDS011;5643;50.856;12.088;2023-07-20T02:26:27;0.97;;;0.97;;
11173;SDS011;5643;50.856;12.088;2023-07-20T02:28:55;1.10;;;1.00;;
11173;SDS011;5643;50.856;12.088;2023-07-20T02:31:22;1.00;;;1.00;;
11173;SDS011;5643;50.856;12.088;2023-07-20T02:33:50;1.00;;;1.00;;
11173;SDS011;5643;50.856;12.088;2023-07-20T02:36:17;1.20;;;1.13;;
11173;SDS011;5643;50.856;12.088;2023-07-20T02:38:45;1.20;;;1.00;;
11173;SDS011;5643;50.856;12.088;2023-07-20T02:41:14;1.17;;;1.10;;
11173;SDS011;5643;50.856;12.088;2023-07-20T02:43:41;1.23;;;1.13;;
11173;SDS011;5643;50.856;12.088;2023-07-20T02:46:08;2.20;;;1.20;;
11173;SDS011;5643;50.856;12.088;2023-07-20T02:48:36;1.03;;;1.03;;
11173;SDS011;5643;50.856;12.088;2023-07-20T02:51:04;1.37;;;1.00;;
11173;SDS011;5643;50.856;12.088;2023-07-20T02:53:33;1.37;;;1.20;;
11173;SDS011;5643;50.856;12.088;2023-07-20T02:56:01;1.10;;;1.10;;
11173;SDS011;5643;50.856;12.088;2023-07-20T02:58:45;1.50;;;0.93;;
11173;SDS011;5643;50.856;12.088;2023-07-20T03:01:13;1.07;;;1.00;;
11173;SDS011;5643;50.856;12.088;2023-07-20T03:03:43;1.10;;;1.10;;
11173;SDS011;5643;50.856;12.088;2023-07-20T03:06:20;1.20;;;1.00;;
11173;SDS011;5643;50.856;12.088;2023-07-20T03:08:50;1.03;;;1.03;;
11173;SDS011;5643;50.856;12.088;2023-07-20T03:11:19;2.53;;;1.13;;
11173;SDS011;5643;50.856;12.088;2023-07-20T03:13:48;1.20;;;1.10;;
11173;SDS011;5643;50.856;12.088;2023-07-20T03:16:17;1.20;;;1.00;;
11173;SDS011;5643;50.856;12.088;2023-07-20T03:18:44;0.97;;;0.97;;
11173;SDS011;5643;50.856;12.088;2023-07-20T03:21:12;0.90;;;0.90;;
11173;SDS011;5643;50.856;12.088;2023-07-20T03:23:39;1.30;;;1.20;;
11173;SDS011;5643;50.856;12.088;2023-07-20T03:26:07;1.30;;;1.20;;
11173;SDS011;5643;50.856;12.088;2023-07-20T03:28:39;1.23;;;1.13;;
11173;SDS011;5643;50.856;12.088;2023-07-20T03:31:07;1.93;;;1.10;;
11173;SDS011;5643;50.856;12.088;2023-07-20T03:33:35;1.47;;;1.20;;
11173;SDS011;5643;50.856;12.088;2023-07-20T03:36:02;1.30;;;1.10;;
11173;SDS011;5643;50.856;12.088;2023-07-20T03:38:35;2.07;;;1.20;;
11173;SDS011;5643;50.856;12.088;2023-07-20T03:41:03;1.40;;;1.30;;
11173;SDS011;5643;50.856;12.088;2023-07-20T03:43:30;1.10;;;1.10;;
11173;SDS011;5643;50.856;12.088;2023-07-20T03:46:00;2.57;;;1.40;;
11173;SDS011;5643;50.856;12.088;2023-07-20T03:48:33;1.00;;;1.00;;
11173;SDS011;5643;50.856;12.088;2023-07-20T03:51:01;1.40;;;1.30;;
11173;SDS011;5643;50.856;12.088;2023-07-20T03:53:28;1.20;;;1.10;;
11173;SDS011;5643;50.856;12.088;2023-07-20T03:55:55;1.77;;;1.30;;
11173;SDS011;5643;50.856;12.088;2023-07-20T03:58:23;1.50;;;1.40;;
11173;SDS011;5643;50.856;12.088;2023-07-20T04:00:51;1.63;;;1.53;;
11173;SDS011;5643;50.856;12.088;2023-07-20T04:03:18;1.60;;;1.50;;
11173;SDS011;5643;50.856;12.088;2023-07-20T04:05:55;1.60;;;1.50;;
11173;SDS011;5643;50.856;12.088;2023-07-20T04:08:23;1.53;;;1.27;;
11173;SDS011;5643;50.856;12.088;2023-07-20T04:10:52;3.43;;;1.23;;
11173;SDS011;5643;50.856;12.088;2023-07-20T04:13:26;1.40;;;1.17;;
11173;SDS011;5643;50.856;12.088;2023-07-20T04:15:53;1.17;;;1.17;;
11173;SDS011;5643;50.856;12.088;2023-07-20T04:18:20;1.00;;;0.90;;
11173;SDS011;5643;50.856;12.088;2023-07-20T04:20:48;1.20;;;1.10;;
11173;SDS011;5643;50.856;12.088;2023-07-20T04:23:19;1.43;;;1.10;;
11173;SDS011;5643;50.856;12.088;2023-07-20T04:25:46;1.30;;;1.20;;
11173;SDS011;5643;50.856;12.088;2023-07-20T04:28:14;1.60;;;1.20;;
11173;SDS011;5643;50.856;12.088;2023-07-20T04:30:42;1.37;;;1.27;;
11173;SDS011;5643;50.856;12.088;2023-07-20T04:33:11;1.20;;;1.10;;
11173;SDS011;5643;50.856;12.088;2023-07-20T04:35:46;1.30;;;1.30;;
11173;SDS011;5643;50.856;12.088;2023-07-20T04:38:13;1.60;;;1.50;;
11173;SDS011;5643;50.856;12.088;2023-07-20T04:40:45;1.40;;;1.30;;
11173;SDS011;5643;50.856;12.088;2023-07-20T04:43:13;1.60;;;1.50;;
11173;SDS011;5643;50.856;12.088;2023-07-20T04:45:41;1.50;;;1.40;;
11173;SDS011;5643;50.856;12.088;2023-07-20T04:48:09;2.70;;;1.63;;
11173;SDS011;5643;50.856;12.088;2023-07-20T04:50:40;1.50;;;1.40;;
11173;SDS011;5643;50.856;12.088;2023-07-20T04:53:08;2.33;;;1.40;;
11173;SDS011;5643;50.856;12.088;2023-07-20T04:55:39;2.17;;;1.40;;
11173;SDS011;5643;50.856;12.088;2023-07-20T04:58:08;2.20;;;1.50;;
11173;SDS011;5643;50.856;12.088;2023-07-20T05:00:37;1.50;;;1.40;;
11173;SDS011;5643;50.856;12.088;2023-07-20T05:03:04;2.20;;;1.40;;
11173;SDS011;5643;50.856;12.088;2023-07-20T05:05:31;2.00;;;1.50;;
11173;SDS011;5643;50.856;12.088;2023-07-20T05:07:59;1.43;;;1.20;;
11173;SDS011;5643;50.856;12.088;2023-07-20T05:10:27;1.50;;;1.40;;
11173;SDS011;5643;50.856;12.088;2023-07-20T05:12:58;1.40;;;1.30;;
11173;SDS011;5643;50.856;12.088;2023-07-20T05:15:27;1.10;;;1.10;;
11173;SDS011;5643;50.856;12.088;2023-07-20T05:17:57;1.20;;;1.10;;
11173;SDS011;5643;50.856;12.088;2023-07-20T05:20:24;1.23;;;1.07;;
11173;SDS011;5643;50.856;12.088;2023-07-20T05:22:53;1.10;;;1.07;;
11173;SDS011;5643;50.856;12.088;2023-07-20T05:25:20;1.57;;;1.47;;
11173;SDS011;5643;50.856;12.088;2023-07-20T05:27:48;1.10;;;1.10;;
11173;SDS011;5643;50.856;12.088;2023-07-20T05:30:16;1.20;;;1.10;;
11173;SDS011;5643;50.856;12.088;2023-07-20T05:32:46;1.00;;;1.00;;
11173;SDS011;5643;50.856;12.088;2023-07-20T05:35:16;1.27;;;1.17;;
11173;SDS011;5643;50.856;12.088;2023-07-20T05:37:44;1.17;;;1.10;;
11173;SDS011;5643;50.856;12.088;2023-07-20T05:40:12;1.10;;;1.10;;
11173;SDS011;5643;50.856;12.088;2023-07-20T05:42:41;1.23;;;1.03;;
11173;SDS011;5643;50.856;12.088;2023-07-20T05:45:09;1.50;;;1.30;;
11173;SDS011;5643;50.856;12.088;2023-07-20T05:47:38;1.37;;;1.27;;
11173;SDS011;5643;50.856;12.088;2023-07-20T05:50:08;1.30;;;1.23;;
11173;SDS011;5643;50.856;12.088;2023-07-20T05:52:36;1.60;;;1.50;;
11173;SDS011;5643;50.856;12.088;2023-07-20T05:55:07;1.40;;;1.30;;
11173;SDS011;5643;50.856;12.088;2023-07-20T05:57:34;1.33;;;1.23;;
11173;SDS011;5643;50.856;12.088;2023-07-20T06:00:06;1.70;;;1.60;;
11173;SDS011;5643;50.856;12.088;2023-07-20T06:02:33;1.37;;;1.27;;
11173;SDS011;5643;50.856;12.088;2023-07-20T06:05:00;2.00;;;1.33;;
11173;SDS011;5643;50.856;12.088;2023-07-20T06:07:32;1.70;;;1.60;;
11173;SDS011;5643;50.856;12.088;2023-07-20T06:10:11;1.37;;;1.33;;
11173;SDS011;5643;50.856;12.088;2023-07-20T06:12:38;1.60;;;1.50;;
11173;SDS011;5643;50.856;12.088;2023-07-20T06:15:07;1.77;;;1.67;;
11173;SDS011;5643;50.856;12.088;2023-07-20T06:17:55;1.50;;;1.40;;
11173;SDS011;5643;50.856;12.088;2023-07-20T06:20:23;1.40;;;1.30;;
11173;SDS011;5643;50.856;12.088;2023-07-20T06:22:53;1.30;;;1.20;;
11173;SDS011;5643;50.856;12.088;2023-07-20T06:25:20;1.27;;;1.20;;
11173;SDS011;5643;50.856;12.088;2023-07-20T06:27:48;1.30;;;1.20;;
11173;SDS011;5643;50.856;12.088;2023-07-20T06:30:20;1.63;;;1.53;;
11173;SDS011;5643;50.856;12.088;2023-07-20T06:32:52;2.23;;;1.50;;
11173;SDS011;5643;50.856;12.088;2023-07-20T06:35:21;1.50;;;1.40;;
11173;SDS011;5643;50.856;12.088;2023-07-20T06:37:50;1.43;;;1.33;;
11173;SDS011;5643;50.856;12.088;2023-07-20T06:40:21;1.43;;;1.33;;
11173;SDS011;5643;50.856;12.088;2023-07-20T06:42:53;1.40;;;1.30;;
11173;SDS011;5643;50.856;12.088;2023-07-20T06:45:23;1.70;;;1.60;;
11173;SDS011;5643;50.856;12.088;2023-07-20T06:47:52;2.30;;;1.50;;
11173;SDS011;5643;50.856;12.088;2023-07-20T06:50:24;1.33;;;1.23;;
11173;SDS011;5643;50.856;12.088;2023-07-20T06:52:55;1.57;;;1.20;;
11173;SDS011;5643;50.856;12.088;2023-07-20T06:55:25;1.30;;;1.20;;
11173;SDS011;5643;50.856;12.088;2023-07-20T06:57:55;1.33;;;1.23;;
11173;SDS011;5643;50.856;12.088;2023-07-20T07:00:23;1.50;;;1.40;;
11173;SDS011;5643;50.856;12.088;2023-07-20T07:02:50;1.20;;;1.20;;
11173;SDS011;5643;50.856;12.088;2023-07-20T07:05:22;1.60;;;1.50;;
11173;SDS011;5643;50.856;12.088;2023-07-20T07:07:53;1.00;;;1.00;;
11173;SDS011;5643;50.856;12.088;2023-07-20T07:10:20;1.83;;;1.70;;
11173;SDS011;5643;50.856;12.088;2023-07-20T07:12:50;1.87;;;1.70;;
11173;SDS011;5643;50.856;12.088;2023-07-20T07:15:18;2.13;;;2.03;;
11173;SDS011;5643;50.856;12.088;2023-07-20T07:17:45;1.90;;;1.80;;
11173;SDS011;5643;50.856;12.088;2023-07-20T07:20:16;1.80;;;1.70;;
11173;SDS011;5643;50.856;12.088;2023-07-20T07:22:44;1.47;;;1.37;;
11173;SDS011;5643;50.856;12.088;2023-07-20T07:25:12;1.60;;;1.50;;
11173;SDS011;5643;50.856;12.088;2023-07-20T07:27:40;1.30;;;1.20;;
11173;SDS011;5643;50.856;12.088;2023-07-20T07:30:11;1.60;;;1.50;;
11173;SDS011;5643;50.856;12.088;2023-07-20T07:32:39;2.13;;;1.80;;
11173;SDS011;5643;50.856;12.088;2023-07-20T07:35:07;2.00;;;1.80;;
11173;SDS011;5643;50.856;12.088;2023-07-20T07:37:35;1.60;;;1.50;;
11173;SDS011;5643;50.856;12.088;2023-07-20T07:40:03;2.77;;;1.87;;
11173;SDS011;5643;50.856;12.088;2023-07-20T07:42:31;1.80;;;1.70;;
11173;SDS011;5643;50.856;12.088;2023-07-20T07:45:02;2.50;;;1.80;;
11173;SDS011;5643;50.856;12.088;2023-07-20T07:47:31;1.73;;;1.50;;
11173;SDS011;5643;50.856;12.088;2023-07-20T07:49:59;0.93;;;0.93;;
11173;SDS011;5643;50.856;12.088;2023-07-20T07:52:30;1.70;;;1.50;;
11173;SDS011;5643;50.856;12.088;2023-07-20T07:55:02;2.20;;;2.00;;
11173;SDS011;5643;50.856;12.088;2023-07-20T07:57:31;1.67;;;1.57;;
11173;SDS011;5643;50.856;12.088;2023-07-20T08:00:00;1.13;;;1.03;;
11173;SDS011;5643;50.856;12.088;2023-07-20T08:02:28;1.43;;;1.20;;
11173;SDS011;5643;50.856;12.088;2023-07-20T08:04:56;1.10;;;1.10;;
11173;SDS011;5643;50.856;12.088;2023-07-20T08:07:26;1.30;;;1.20;;
11173;SDS011;5643;50.856;12.088;2023-07-20T08:09:55;1.90;;;1.50;;
11173;SDS011;5643;50.856;12.088;2023-07-20T08:12:22;1.60;;;1.37;;
11173;SDS011;5643;50.856;12.088;2023-07-20T08:14:49;1.23;;;1.13;;
11173;SDS011;5643;50.856;12.088;2023-07-20T08:17:17;1.03;;;1.03;;
11173;SDS011;5643;50.856;12.088;2023-07-20T08:19:45;1.50;;;1.40;;
11173;SDS011;5643;50.856;12.088;2023-07-20T08:22:15;1.10;;;1.10;;
11173;SDS011;5643;50.856;12.088;2023-07-20T08:24:42;1.47;;;1.30;;
11173;SDS011;5643;50.856;12.088;2023-07-20T08:27:10;1.27;;;1.17;;
11173;SDS011;5643;50.856;12.088;2023-07-20T08:29:38;1.25;;;1.17;;
11173;SDS011;5643;50.856;12.088;2023-07-20T08:32:05;1.10;;;1.10;;
11173;SDS011;5643;50.856;12.088;2023-07-20T08:34:34;0.80;;;0.80;;
11173;SDS011;5643;50.856;12.088;2023-07-20T08:37:02;1.58;;;1.10;;
11173;SDS011;5643;50.856;12.088;2023-07-20T08:39:34;0.80;;;0.80;;
11173;SDS011;5643;50.856;12.088;2023-07-20T08:42:01;0.87;;;0.87;;
11173;SDS011;5643;50.856;12.088;2023-07-20T08:44:32;1.80;;;1.30;;
11173;SDS011;5643;50.856;12.088;2023-07-20T08:47:00;1.50;;;1.40;;
11173;SDS011;5643;50.856;12.088;2023-07-20T08:49:29;1.35;;;1.25;;
11173;SDS011;5643;50.856;12.088;2023-07-20T08:51:56;1.23;;;1.13;;
11173;SDS011;5643;50.856;12.088;2023-07-20T08:54:25;1.00;;;0.90;;
11173;SDS011;5643;50.856;12.088;2023-07-20T08:56:55;0.90;;;0.90;;
11173;SDS011;5643;50.856;12.088;2023-07-20T08:59:24;0.75;;;0.75;;
11173;SDS011;5643;50.856;12.088;2023-07-20T09:01:52;0.73;;;0.73;;
11173;SDS011;5643;50.856;12.088;2023-07-20T09:04:20;0.80;;;0.80;;
11173;SDS011;5643;50.856;12.088;2023-07-20T09:06:48;0.90;;;0.90;;
11173;SDS011;5643;50.856;12.088;2023-07-20T09:09:16;0.82;;;0.82;;
11173;SDS011;5643;50.856;12.088;2023-07-20T09:11:47;0.70;;;0.70;;
11173;SDS011;5643;50.856;12.088;2023-07-20T09:14:17;1.08;;;0.80;;
11173;SDS011;5643;50.856;12.088;2023-07-20T09:16:47;0.55;;;0.55;;
11173;SDS011;5643;50.856;12.088;2023-07-20T09:19:24;0.75;;;0.75;;
11173;SDS011;5643;50.856;12.088;2023-07-20T09:21:55;0.80;;;0.80;;
11173;SDS011;5643;50.856;12.088;2023-07-20T09:24:23;0.63;;;0.63;;
11173;SDS011;5643;50.856;12.088;2023-07-20T09:26:51;0.90;;;0.90;;
11173;SDS011;5643;50.856;12.088;2023-07-20T09:29:26;0.68;;;0.68;;
11173;SDS011;5643;50.856;12.088;2023-07-20T09:31:58;0.98;;;0.98;;
11173;SDS011;5643;50.856;12.088;2023-07-20T09:34:28;0.80;;;0.80;;
11173;SDS011;5643;50.856;12.088;2023-07-20T09:36:55;0.77;;;0.77;;
11173;SDS011;5643;50.856;12.088;2023-07-20T09:39:23;0.80;;;0.80;;
11173;SDS011;5643;50.856;12.088;2023-07-20T09:41:51;0.85;;;0.82;;
11173;SDS011;5643;50.856;12.088;2023-07-20T09:44:20;0.70;;;0.70;;
11173;SDS011;5643;50.856;12.088;2023-07-20T09:46:49;0.70;;;0.70;;
11173;SDS011;5643;50.856;12.088;2023-07-20T09:49:24;0.80;;;0.80;;
11173;SDS011;5643;50.856;12.088;2023-07-20T09:51:52;0.77;;;0.70;;
11173;SDS011;5643;50.856;12.088;2023-07-20T09:54:21;0.70;;;0.70;;
11173;SDS011;5643;50.856;12.088;2023-07-20T09:56:49;0.98;;;0.77;;
11173;SDS011;5643;50.856;12.088;2023-07-20T09:59:19;1.58;;;0.70;;
11173;SDS011;5643;50.856;12.088;2023-07-20T10:01:47;0.93;;;0.80;;
11173;SDS011;5643;50.856;12.088;2023-07-20T10:04:19;0.80;;;0.80;;
11173;SDS011;5643;50.856;12.088;2023-07-20T10:06:49;1.05;;;0.98;;
11173;SDS011;5643;50.856;12.088;2023-07-20T10:09:18;1.15;;;1.05;;
11173;SDS011;5643;50.856;12.088;2023-07-20T10:11:48;1.00;;;1.00;;
11173;SDS011;5643;50.856;12.088;2023-07-20T10:14:18;1.27;;;0.80;;
11173;SDS011;5643;50.856;12.088;2023-07-20T10:16:49;1.20;;;1.10;;
11173;SDS011;5643;50.856;12.088;2023-07-20T10:19:23;1.30;;;1.20;;
11173;SDS011;5643;50.856;12.088;2023-07-20T10:21:54;1.10;;;1.00;;
11173;SDS011;5643;50.856;12.088;2023-07-20T10:24:24;1.98;;;1.38;;
11173;SDS011;5643;50.856;12.088;2023-07-20T10:26:53;1.25;;;1.17;;
11173;SDS011;5643;50.856;12.088;2023-07-20T10:29:21;1.63;;;1.10;;
11173;SDS011;5643;50.856;12.088;2023-07-20T10:31:48;1.10;;;1.00;;
11173;SDS011;5643;50.856;12.088;2023-07-20T10:34:19;0.98;;;0.98;;
11173;SDS011;5643;50.856;12.088;2023-07-20T10:36:53;0.95;;;0.95;;
11173;SDS011;5643;50.856;12.088;2023-07-20T10:39:24;1.00;;;1.00;;
11173;SDS011;5643;50.856;12.088;2023-07-20T10:42:02;1.48;;;1.02;;
11173;SDS011;5643;50.856;12.088;2023-07-20T10:44:30;1.25;;;1.00;;
11173;SDS011;5643;50.856;12.088;2023-07-20T10:47:02;1.10;;;1.00;;
11173;SDS011;5643;50.856;12.088;2023-07-20T10:49:32;0.93;;;0.88;;
11173;SDS011;5643;50.856;12.088;2023-07-20T10:52:05;1.08;;;1.00;;
11173;SDS011;5643;50.856;12.088;2023-07-20T10:54:35;1.00;;;1.00;;
11173;SDS011;5643;50.856;12.088;2023-07-20T10:57:24;1.35;;;1.25;;
11173;SDS011;5643;50.856;12.088;2023-07-20T10:59:52;2.60;;;1.70;;
11173;SDS011;5643;50.856;12.088;2023-07-20T11:02:41;1.60;;;1.50;;
11173;SDS011;5643;50.856;12.088;2023-07-20T11:07:54;2.15;;;1.70;;
11173;SDS011;5643;50.856;12.088;2023-07-20T11:10:21;1.73;;;1.63;;
11173;SDS011;5643;50.856;12.088;2023-07-20T11:15:44;1.85;;;1.75;;
11173;SDS011;5643;50.856;12.088;2023-07-20T11:18:11;2.10;;;2.00;;
11173;SDS011;5643;50.856;12.088;2023-07-20T11:20:39;2.50;;;2.30;;
11173;SDS011;5643;50.856;12.088;2023-07-20T11:23:09;2.10;;;2.00;;
11173;SDS011;5643;50.856;12.088;2023-07-20T11:25:37;2.10;;;2.00;;
11173;SDS011;5643;50.856;12.088;2023-07-20T11:28:08;2.37;;;2.17;;
11173;SDS011;5643;50.856;12.088;2023-07-20T11:30:36;2.05;;;1.95;;
11173;SDS011;5643;50.856;12.088;2023-07-20T11:33:03;2.37;;;2.17;;
11173;SDS011;5643;50.856;12.088;2023-07-20T11:35:34;2.20;;;2.10;;
11173;SDS011;5643;50.856;12.088;2023-07-20T11:38:03;1.80;;;1.70;;
11173;SDS011;5643;50.856;12.088;2023-07-20T11:40:34;2.03;;;1.87;;
11173;SDS011;5643;50.856;12.088;2023-07-20T11:43:02;1.80;;;1.70;;
11173;SDS011;5643;50.856;12.088;2023-07-20T11:45:29;1.50;;;1.40;;
11173;SDS011;5643;50.856;12.088;2023-07-20T11:47:58;1.70;;;1.60;;
11173;SDS011;5643;50.856;12.088;2023-07-20T11:50:26;1.53;;;1.43;;
11173;SDS011;5643;50.856;12.088;2023-07-20T11:52:53;1.40;;;1.30;;
11173;SDS011;5643;50.856;12.088;2023-07-20T11:58:11;1.27;;;1.27;;
11173;SDS011;5643;50.856;12.088;2023-07-20T12:00:38;1.33;;;1.20;;
11173;SDS011;5643;50.856;12.088;2023-07-20T12:03:05;0.90;;;0.90;;
11173;SDS011;5643;50.856;12.088;2023-07-20T12:05:39;0.80;;;0.80;;
11173;SDS011;5643;50.856;12.088;2023-07-20T12:08:07;0.95;;;0.70;;
11173;SDS011;5643;50.856;12.088;2023-07-20T12:10:34;0.75;;;0.75;;
11173;SDS011;5643;50.856;12.088;2023-07-20T12:13:04;1.10;;;0.50;;
11173;SDS011;5643;50.856;12.088;2023-07-20T12:15:37;0.60;;;0.60;;
11173;SDS011;5643;50.856;12.088;2023-07-20T12:18:04;0.30;;;0.30;;
11173;SDS011;5643;50.856;12.088;2023-07-20T12:20:33;0.40;;;0.40;;
11173;SDS011;5643;50.856;12.088;2023-07-20T12:23:01;0.50;;;0.50;;
11173;SDS011;5643;50.856;12.088;2023-07-20T12:25:34;0.50;;;0.50;;
11173;SDS011;5643;50.856;12.088;2023-07-20T12:28:01;0.60;;;0.45;;
11173;SDS011;5643;50.856;12.088;2023-07-20T12:30:30;0.40;;;0.40;;
11173;SDS011;5643;50.856;12.088;2023-07-20T12:32:59;0.50;;;0.50;;
11173;SDS011;5643;50.856;12.088;2023-07-20T12:35:29;0.70;;;0.52;;
11173;SDS011;5643;50.856;12.088;2023-07-20T12:37:59;0.40;;;0.40;;
11173;SDS011;5643;50.856;12.088;2023-07-20T12:40:28;0.40;;;0.40;;
11173;SDS011;5643;50.856;12.088;2023-07-20T12:42:56;0.40;;;0.40;;
11173;SDS011;5643;50.856;12.088;2023-07-20T12:45:24;0.30;;;0.30;;
11173;SDS011;5643;50.856;12.088;2023-07-20T12:47:52;0.60;;;0.60;;
11173;SDS011;5643;50.856;12.088;2023-07-20T12:50:35;0.40;;;0.40;;
11173;SDS011;5643;50.856;12.088;2023-07-20T12:53:03;0.40;;;0.40;;
11173;SDS011;5643;50.856;12.088;2023-07-20T12:55:31;0.50;;;0.50;;
11173;SDS011;5643;50.856;12.088;2023-07-20T12:57:58;0.30;;;0.30;;
11173;SDS011;5643;50.856;12.088;2023-07-20T13:00:26;0.45;;;0.45;;
11173;SDS011;5643;50.856;12.088;2023-07-20T13:03:03;0.50;;;0.50;;
11173;SDS011;5643;50.856;12.088;2023-07-20T13:05:33;0.70;;;0.70;;
11173;SDS011;5643;50.856;12.088;2023-07-20T13:11:15;0.40;;;0.40;;
11173;SDS011;5643;50.856;12.088;2023-07-20T13:13:42;0.52;;;0.52;;
11173;SDS011;5643;50.856;12.088;2023-07-20T13:16:10;0.63;;;0.63;;
11173;SDS011;5643;50.856;12.088;2023-07-20T13:18:42;0.50;;;0.50;;
11173;SDS011;5643;50.856;12.088;2023-07-20T13:21:10;0.63;;;0.50;;
11173;SDS011;5643;50.856;12.088;2023-07-20T13:23:37;0.60;;;0.60;;
11173;SDS011;5643;50.856;12.088;2023-07-20T13:26:06;0.40;;;0.40;;
11173;SDS011;5643;50.856;12.088;2023-07-20T13:28:37;0.90;;;0.50;;
11173;SDS011;5643;50.856;12.088;2023-07-20T13:31:04;0.50;;;0.50;;
11173;SDS011;5643;50.856;12.088;2023-07-20T13:33:32;0.40;;;0.40;;
11173;SDS011;5643;50.856;12.088;2023-07-20T13:36:01;0.50;;;0.50;;
11173;SDS011;5643;50.856;12.088;2023-07-20T13:38:32;0.57;;;0.57;;
11173;SDS011;5643;50.856;12.088;2023-07-20T13:40:59;1.00;;;0.60;;
11173;SDS011;5643;50.856;12.088;2023-07-20T13:43:30;0.57;;;0.40;;
11173;SDS011;5643;50.856;12.088;2023-07-20T13:45:59;0.32;;;0.32;;
11173;SDS011;5643;50.856;12.088;2023-07-20T13:48:27;0.40;;;0.40;;
11173;SDS011;5643;50.856;12.088;2023-07-20T13:50:57;0.40;;;0.40;;
11173;SDS011;5643;50.856;12.088;2023-07-20T13:53:25;0.40;;;0.40;;
11173;SDS011;5643;50.856;12.088;2023-07-20T13:55:53;0.50;;;0.50;;
11173;SDS011;5643;50.856;12.088;2023-07-20T13:58:24;0.40;;;0.40;;
11173;SDS011;5643;50.856;12.088;2023-07-20T14:00:52;0.40;;;0.40;;
11173;SDS011;5643;50.856;12.088;2023-07-20T14:03:22;0.40;;;0.40;;
11173;SDS011;5643;50.856;12.088;2023-07-20T14:05:50;0.47;;;0.30;;
11173;SDS011;5643;50.856;12.088;2023-07-20T14:08:24;0.60;;;0.60;;
11173;SDS011;5643;50.856;12.088;2023-07-20T14:10:53;0.65;;;0.40;;
11173;SDS011;5643;50.856;12.088;2023-07-20T14:13:24;0.63;;;0.43;;
11173;SDS011;5643;50.856;12.088;2023-07-20T14:18:57;0.50;;;0.50;;
11173;SDS011;5643;50.856;12.088;2023-07-20T14:21:26;0.63;;;0.60;;
11173;SDS011;5643;50.856;12.088;2023-07-20T14:23:57;0.50;;;0.50;;
11173;SDS011;5643;50.856;12.088;2023-07-20T14:26:38;0.32;;;0.32;;
11173;SDS011;5643;50.856;12.088;2023-07-20T14:29:06;0.52;;;0.52;;
11173;SDS011;5643;50.856;12.088;2023-07-20T14:31:33;0.57;;;0.57;;
11173;SDS011;5643;50.856;12.088;2023-07-20T14:34:03;0.47;;;0.47;;
11173;SDS011;5643;50.856;12.088;2023-07-20T14:36:35;0.40;;;0.40;;
11173;SDS011;5643;50.856;12.088;2023-07-20T14:39:04;0.57;;;0.57;;
11173;SDS011;5643;50.856;12.088;2023-07-20T14:41:34;0.40;;;0.40;;
11173;SDS011;5643;50.856;12.088;2023-07-20T14:44:05;0.80;;;0.50;;
11173;SDS011;5643;50.856;12.088;2023-07-20T14:46:34;0.40;;;0.40;;
11173;SDS011;5643;50.856;12.088;2023-07-20T14:49:03;0.35;;;0.30;;
11173;SDS011;5643;50.856;12.088;2023-07-20T14:51:33;0.30;;;0.30;;
11173;SDS011;5643;50.856;12.088;2023-07-20T14:54:01;1.27;;;0.40;;
11173;SDS011;5643;50.856;12.088;2023-07-20T14:56:30;0.45;;;0.45;;
11173;SDS011;5643;50.856;12.088;2023-07-20T14:59:00;0.50;;;0.50;;
11173;SDS011;5643;50.856;12.088;2023-07-20T15:01:27;0.30;;;0.30;;
11173;SDS011;5643;50.856;12.088;2023-07-20T15:03:54;0.45;;;0.45;;
11173;SDS011;5643;50.856;12.088;2023-07-20T15:06:26;0.40;;;0.40;;
11173;SDS011;5643;50.856;12.088;2023-07-20T15:08:59;0.65;;;0.47;;
11173;SDS011;5643;50.856;12.088;2023-07-20T15:11:30;0.40;;;0.40;;
11173;SDS011;5643;50.856;12.088;2023-07-20T15:13:59;0.65;;;0.30;;
11173;SDS011;5643;50.856;12.088;2023-07-20T15:16:27;0.40;;;0.40;;
11173;SDS011;5643;50.856;12.088;2023-07-20T15:18:57;0.47;;;0.47;;
11173;SDS011;5643;50.856;12.088;2023-07-20T15:21:25;0.38;;;0.38;;
11173;SDS011;5643;50.856;12.088;2023-07-20T15:23:56;0.40;;;0.40;;